sensor_id;sensor_type;location;lat;lon;timestamp;P1;durP1;ratioP1;P2;durP2;ratioP2
42364;SDS011;28498;54.400;18.566;2022-09-09T00:04:13;7.45;;;2.70;;
42364;SDS011;28498;54.400;18.566;2022-09-09T00:06:54;6.07;;;2.35;;
42364;SDS011;28498;54.400;18.566;2022-09-09T00:09:29;4.97;;;2.15;;
42364;SDS011;28498;54.400;18.566;2022-09-09T00:12:12;4.85;;;2.13;;
42364;SDS011;28498;54.400;18.566;2022-09-09T00:15:14;7.85;;;1.98;;
42364;SDS011;28498;54.400;18.566;2022-09-09T00:23:13;5.07;;;2.00;;
42364;SDS011;28498;54.400;18.566;2022-09-09T00:28:28;6.20;;;2.10;;
42364;SDS011;28498;54.400;18.566;2022-09-09T00:31:07;6.32;;;2.00;;
42364;SDS011;28498;54.400;18.566;2022-09-09T00:33:41;4.80;;;2.05;;
42364;SDS011;28498;54.400;18.566;2022-09-09T00:36:13;5.80;;;2.10;;
42364;SDS011;28498;54.400;18.566;2022-09-09T00:38:55;10.85;;;2.78;;
42364;SDS011;28498;54.400;18.566;2022-09-09T00:44:23;6.00;;;1.85;;
42364;SDS011;28498;54.400;18.566;2022-09-09T00:47:07;6.72;;;1.83;;
42364;SDS011;28498;54.400;18.566;2022-09-09T00:49:46;5.35;;;2.33;;
42364;SDS011;28498;54.400;18.566;2022-09-09T00:55:38;4.78;;;2.00;;
42364;SDS011;28498;54.400;18.566;2022-09-09T00:58:07;4.78;;;1.92;;
42364;SDS011;28498;54.400;18.566;2022-09-09T01:00:36;7.05;;;1.70;;
42364;SDS011;28498;54.400;18.566;2022-09-09T01:06:10;4.35;;;2.10;;
42364;SDS011;28498;54.400;18.566;2022-09-09T01:11:24;3.53;;;1.70;;
42364;SDS011;28498;54.400;18.566;2022-09-09T01:14:37;5.70;;;2.90;;
42364;SDS011;28498;54.400;18.566;2022-09-09T01:16:53;5.85;;;2.20;;
42364;SDS011;28498;54.400;18.566;2022-09-09T01:19:25;3.95;;;1.65;;
42364;SDS011;28498;54.400;18.566;2022-09-09T01:22:15;5.05;;;1.58;;
42364;SDS011;28498;54.400;18.566;2022-09-09T01:27:46;5.20;;;1.90;;
42364;SDS011;28498;54.400;18.566;2022-09-09T01:30:16;4.50;;;1.80;;
42364;SDS011;28498;54.400;18.566;2022-09-09T01:32:45;7.13;;;2.00;;
42364;SDS011;28498;54.400;18.566;2022-09-09T01:35:27;3.47;;;1.83;;
42364;SDS011;28498;54.400;18.566;2022-09-09T01:38:15;6.45;;;1.83;;
42364;SDS011;28498;54.400;18.566;2022-09-09T01:40:42;5.68;;;2.05;;
42364;SDS011;28498;54.400;18.566;2022-09-09T01:43:09;4.47;;;2.08;;
42364;SDS011;28498;54.400;18.566;2022-09-09T01:45:37;6.47;;;1.40;;
42364;SDS011;28498;54.400;18.566;2022-09-09T01:48:07;3.72;;;1.90;;
42364;SDS011;28498;54.400;18.566;2022-09-09T01:50:34;9.05;;;1.67;;
42364;SDS011;28498;54.400;18.566;2022-09-09T01:53:01;5.30;;;2.10;;
42364;SDS011;28498;54.400;18.566;2022-09-09T01:55:30;3.40;;;1.90;;
42364;SDS011;28498;54.400;18.566;2022-09-09T02:00:57;5.05;;;1.60;;
42364;SDS011;28498;54.400;18.566;2022-09-09T02:03:42;2.78;;;1.50;;
42364;SDS011;28498;54.400;18.566;2022-09-09T02:06:34;6.03;;;2.63;;
42364;SDS011;28498;54.400;18.566;2022-09-09T02:09:07;3.83;;;1.88;;
42364;SDS011;28498;54.400;18.566;2022-09-09T02:11:39;4.18;;;1.77;;
42364;SDS011;28498;54.400;18.566;2022-09-09T02:14:10;8.32;;;2.83;;
42364;SDS011;28498;54.400;18.566;2022-09-09T02:16:42;5.15;;;2.05;;
42364;SDS011;28498;54.400;18.566;2022-09-09T02:19:29;3.95;;;1.63;;
42364;SDS011;28498;54.400;18.566;2022-09-09T02:22:03;5.20;;;1.95;;
42364;SDS011;28498;54.400;18.566;2022-09-09T02:24:31;4.97;;;1.70;;
42364;SDS011;28498;54.400;18.566;2022-09-09T02:27:03;7.05;;;1.80;;
42364;SDS011;28498;54.400;18.566;2022-09-09T02:29:36;8.95;;;2.22;;
42364;SDS011;28498;54.400;18.566;2022-09-09T02:32:14;4.40;;;1.90;;
42364;SDS011;28498;54.400;18.566;2022-09-09T02:34:45;3.30;;;1.65;;
42364;SDS011;28498;54.400;18.566;2022-09-09T02:37:20;5.32;;;1.88;;
42364;SDS011;28498;54.400;18.566;2022-09-09T02:39:51;4.38;;;2.17;;
42364;SDS011;28498;54.400;18.566;2022-09-09T02:42:18;5.88;;;2.00;;
42364;SDS011;28498;54.400;18.566;2022-09-09T02:44:45;5.68;;;1.77;;
42364;SDS011;28498;54.400;18.566;2022-09-09T02:55:45;3.95;;;1.73;;
42364;SDS011;28498;54.400;18.566;2022-09-09T02:58:18;4.55;;;1.92;;
42364;SDS011;28498;54.400;18.566;2022-09-09T03:00:46;4.25;;;2.00;;
42364;SDS011;28498;54.400;18.566;2022-09-09T03:03:14;5.78;;;2.10;;
42364;SDS011;28498;54.400;18.566;2022-09-09T03:05:45;3.35;;;2.08;;
42364;SDS011;28498;54.400;18.566;2022-09-09T03:08:12;4.72;;;1.80;;
42364;SDS011;28498;54.400;18.566;2022-09-09T03:10:39;5.70;;;2.10;;
42364;SDS011;28498;54.400;18.566;2022-09-09T03:13:06;6.38;;;1.83;;
42364;SDS011;28498;54.400;18.566;2022-09-09T03:15:34;5.72;;;2.03;;
42364;SDS011;28498;54.400;18.566;2022-09-09T03:18:01;6.05;;;2.38;;
42364;SDS011;28498;54.400;18.566;2022-09-09T03:20:28;4.75;;;1.73;;
42364;SDS011;28498;54.400;18.566;2022-09-09T03:22:56;6.05;;;2.10;;
42364;SDS011;28498;54.400;18.566;2022-09-09T03:25:23;4.85;;;1.95;;
42364;SDS011;28498;54.400;18.566;2022-09-09T03:27:51;4.78;;;2.50;;
42364;SDS011;28498;54.400;18.566;2022-09-09T03:30:21;7.47;;;3.13;;
42364;SDS011;28498;54.400;18.566;2022-09-09T03:32:49;8.00;;;3.78;;
42364;SDS011;28498;54.400;18.566;2022-09-09T03:35:15;9.20;;;3.15;;
42364;SDS011;28498;54.400;18.566;2022-09-09T03:37:43;6.75;;;3.60;;
42364;SDS011;28498;54.400;18.566;2022-09-09T03:40:10;6.28;;;4.00;;
42364;SDS011;28498;54.400;18.566;2022-09-09T03:42:38;8.38;;;4.38;;
42364;SDS011;28498;54.400;18.566;2022-09-09T03:45:06;8.10;;;4.38;;
42364;SDS011;28498;54.400;18.566;2022-09-09T03:47:35;9.52;;;4.63;;
42364;SDS011;28498;54.400;18.566;2022-09-09T03:50:03;8.30;;;4.75;;
42364;SDS011;28498;54.400;18.566;2022-09-09T03:52:38;13.05;;;5.40;;
42364;SDS011;28498;54.400;18.566;2022-09-09T03:55:07;10.65;;;5.90;;
42364;SDS011;28498;54.400;18.566;2022-09-09T03:57:34;12.80;;;6.13;;
42364;SDS011;28498;54.400;18.566;2022-09-09T04:00:05;11.00;;;5.88;;
42364;SDS011;28498;54.400;18.566;2022-09-09T04:02:33;11.38;;;6.40;;
42364;SDS011;28498;54.400;18.566;2022-09-09T04:05:00;11.18;;;4.78;;
42364;SDS011;28498;54.400;18.566;2022-09-09T04:07:27;16.65;;;4.80;;
42364;SDS011;28498;54.400;18.566;2022-09-09T04:09:54;2.50;;;1.25;;
42364;SDS011;28498;54.400;18.566;2022-09-09T04:12:21;1.55;;;1.00;;
42364;SDS011;28498;54.400;18.566;2022-09-09T04:14:48;0.82;;;0.80;;
42364;SDS011;28498;54.400;18.566;2022-09-09T04:17:15;0.55;;;0.50;;
42364;SDS011;28498;54.400;18.566;2022-09-09T04:19:43;0.35;;;0.35;;
42364;SDS011;28498;54.400;18.566;2022-09-09T04:22:10;3.72;;;1.27;;
42364;SDS011;28498;54.400;18.566;2022-09-09T04:24:37;0.30;;;0.30;;
42364;SDS011;28498;54.400;18.566;2022-09-09T04:27:04;1.30;;;1.20;;
42364;SDS011;28498;54.400;18.566;2022-09-09T04:29:31;6.75;;;3.40;;
42364;SDS011;28498;54.400;18.566;2022-09-09T04:31:58;1.13;;;0.88;;
42364;SDS011;28498;54.400;18.566;2022-09-09T04:34:25;0.73;;;0.73;;
42364;SDS011;28498;54.400;18.566;2022-09-09T04:36:52;1.85;;;1.40;;
42364;SDS011;28498;54.400;18.566;2022-09-09T04:39:19;0.63;;;0.63;;
42364;SDS011;28498;54.400;18.566;2022-09-09T04:41:46;0.50;;;0.43;;
42364;SDS011;28498;54.400;18.566;2022-09-09T04:44:13;0.35;;;0.35;;
42364;SDS011;28498;54.400;18.566;2022-09-09T04:46:40;2.15;;;1.17;;
42364;SDS011;28498;54.400;18.566;2022-09-09T04:49:07;2.15;;;1.95;;
42364;SDS011;28498;54.400;18.566;2022-09-09T04:51:40;0.30;;;0.30;;
42364;SDS011;28498;54.400;18.566;2022-09-09T04:54:07;0.68;;;0.68;;
42364;SDS011;28498;54.400;18.566;2022-09-09T04:56:34;0.30;;;0.30;;
42364;SDS011;28498;54.400;18.566;2022-09-09T04:59:00;2.28;;;1.05;;
42364;SDS011;28498;54.400;18.566;2022-09-09T05:01:29;2.45;;;0.80;;
42364;SDS011;28498;54.400;18.566;2022-09-09T05:03:56;2.30;;;1.35;;
42364;SDS011;28498;54.400;18.566;2022-09-09T05:06:22;0.40;;;0.40;;
42364;SDS011;28498;54.400;18.566;2022-09-09T05:08:50;0.20;;;0.20;;
42364;SDS011;28498;54.400;18.566;2022-09-09T05:11:21;0.85;;;0.85;;
42364;SDS011;28498;54.400;18.566;2022-09-09T05:13:49;1.60;;;1.50;;
42364;SDS011;28498;54.400;18.566;2022-09-09T05:16:17;0.52;;;0.50;;
42364;SDS011;28498;54.400;18.566;2022-09-09T05:18:44;0.68;;;0.68;;
42364;SDS011;28498;54.400;18.566;2022-09-09T05:21:13;0.63;;;0.63;;
42364;SDS011;28498;54.400;18.566;2022-09-09T05:23:41;0.47;;;0.47;;
42364;SDS011;28498;54.400;18.566;2022-09-09T05:26:14;0.75;;;0.75;;
42364;SDS011;28498;54.400;18.566;2022-09-09T05:28:43;0.55;;;0.55;;
42364;SDS011;28498;54.400;18.566;2022-09-09T05:31:11;1.65;;;1.55;;
42364;SDS011;28498;54.400;18.566;2022-09-09T05:33:40;0.82;;;0.82;;
42364;SDS011;28498;54.400;18.566;2022-09-09T05:36:10;0.52;;;0.52;;
42364;SDS011;28498;54.400;18.566;2022-09-09T05:38:43;1.55;;;1.45;;
42364;SDS011;28498;54.400;18.566;2022-09-09T05:41:10;4.30;;;1.10;;
42364;SDS011;28498;54.400;18.566;2022-09-09T05:43:38;0.43;;;0.43;;
42364;SDS011;28498;54.400;18.566;2022-09-09T05:46:07;0.22;;;0.22;;
42364;SDS011;28498;54.400;18.566;2022-09-09T05:48:36;1.02;;;0.90;;
42364;SDS011;28498;54.400;18.566;2022-09-09T05:51:05;1.33;;;1.23;;
42364;SDS011;28498;54.400;18.566;2022-09-09T05:53:33;0.52;;;0.52;;
42364;SDS011;28498;54.400;18.566;2022-09-09T05:56:01;0.40;;;0.40;;
42364;SDS011;28498;54.400;18.566;2022-09-09T05:58:33;6.13;;;1.95;;
42364;SDS011;28498;54.400;18.566;2022-09-09T06:01:07;1.50;;;0.82;;
42364;SDS011;28498;54.400;18.566;2022-09-09T06:03:37;2.63;;;0.95;;
42364;SDS011;28498;54.400;18.566;2022-09-09T06:06:07;2.55;;;0.85;;
42364;SDS011;28498;54.400;18.566;2022-09-09T06:08:39;0.30;;;0.30;;
42364;SDS011;28498;54.400;18.566;2022-09-09T06:11:10;0.22;;;0.22;;
42364;SDS011;28498;54.400;18.566;2022-09-09T06:13:40;0.55;;;0.55;;
42364;SDS011;28498;54.400;18.566;2022-09-09T06:16:08;0.88;;;0.57;;
42364;SDS011;28498;54.400;18.566;2022-09-09T06:18:38;5.00;;;1.40;;
42364;SDS011;28498;54.400;18.566;2022-09-09T06:21:08;0.20;;;0.20;;
42364;SDS011;28498;54.400;18.566;2022-09-09T06:23:40;0.65;;;0.52;;
42364;SDS011;28498;54.400;18.566;2022-09-09T06:26:18;0.57;;;0.57;;
42364;SDS011;28498;54.400;18.566;2022-09-09T06:28:48;0.20;;;0.20;;
42364;SDS011;28498;54.400;18.566;2022-09-09T06:31:16;0.40;;;0.40;;
42364;SDS011;28498;54.400;18.566;2022-09-09T06:33:53;0.45;;;0.45;;
42364;SDS011;28498;54.400;18.566;2022-09-09T06:36:25;0.57;;;0.57;;
42364;SDS011;28498;54.400;18.566;2022-09-09T06:38:59;0.20;;;0.20;;
42364;SDS011;28498;54.400;18.566;2022-09-09T06:41:27;0.63;;;0.63;;
42364;SDS011;28498;54.400;18.566;2022-09-09T06:43:56;0.20;;;0.20;;
42364;SDS011;28498;54.400;18.566;2022-09-09T06:46:27;0.88;;;0.88;;
42364;SDS011;28498;54.400;18.566;2022-09-09T06:48:57;0.68;;;0.57;;
42364;SDS011;28498;54.400;18.566;2022-09-09T06:51:29;0.30;;;0.30;;
42364;SDS011;28498;54.400;18.566;2022-09-09T06:53:59;0.85;;;0.63;;
42364;SDS011;28498;54.400;18.566;2022-09-09T06:59:08;0.50;;;0.50;;
42364;SDS011;28498;54.400;18.566;2022-09-09T07:01:37;2.58;;;1.60;;
42364;SDS011;28498;54.400;18.566;2022-09-09T07:04:07;0.30;;;0.30;;
42364;SDS011;28498;54.400;18.566;2022-09-09T07:06:36;0.90;;;0.90;;
42364;SDS011;28498;54.400;18.566;2022-09-09T07:09:05;0.50;;;0.50;;
42364;SDS011;28498;54.400;18.566;2022-09-09T07:11:38;2.75;;;0.95;;
42364;SDS011;28498;54.400;18.566;2022-09-09T07:14:06;0.47;;;0.47;;
42364;SDS011;28498;54.400;18.566;2022-09-09T07:16:34;1.13;;;1.13;;
42364;SDS011;28498;54.400;18.566;2022-09-09T07:19:03;0.35;;;0.35;;
42364;SDS011;28498;54.400;18.566;2022-09-09T07:21:31;0.50;;;0.50;;
42364;SDS011;28498;54.400;18.566;2022-09-09T07:23:59;0.20;;;0.20;;
42364;SDS011;28498;54.400;18.566;2022-09-09T07:26:28;0.93;;;0.63;;
42364;SDS011;28498;54.400;18.566;2022-09-09T07:28:56;0.73;;;0.73;;
42364;SDS011;28498;54.400;18.566;2022-09-09T07:33:52;0.40;;;0.40;;
42364;SDS011;28498;54.400;18.566;2022-09-09T07:39:13;0.95;;;0.95;;
42364;SDS011;28498;54.400;18.566;2022-09-09T07:41:41;2.17;;;1.23;;
42364;SDS011;28498;54.400;18.566;2022-09-09T07:44:14;0.60;;;0.60;;
42364;SDS011;28498;54.400;18.566;2022-09-09T07:46:42;0.40;;;0.40;;
42364;SDS011;28498;54.400;18.566;2022-09-09T07:49:11;0.22;;;0.22;;
42364;SDS011;28498;54.400;18.566;2022-09-09T07:51:39;0.30;;;0.30;;
42364;SDS011;28498;54.400;18.566;2022-09-09T07:54:09;0.20;;;0.20;;
42364;SDS011;28498;54.400;18.566;2022-09-09T07:56:38;0.70;;;0.70;;
42364;SDS011;28498;54.400;18.566;2022-09-09T07:59:06;0.77;;;0.77;;
42364;SDS011;28498;54.400;18.566;2022-09-09T08:01:37;1.90;;;1.45;;
42364;SDS011;28498;54.400;18.566;2022-09-09T08:04:08;0.30;;;0.30;;
42364;SDS011;28498;54.400;18.566;2022-09-09T08:06:38;0.50;;;0.50;;
42364;SDS011;28498;54.400;18.566;2022-09-09T08:09:06;1.88;;;0.50;;
42364;SDS011;28498;54.400;18.566;2022-09-09T08:11:34;0.57;;;0.57;;
42364;SDS011;28498;54.400;18.566;2022-09-09T08:14:04;0.30;;;0.30;;
42364;SDS011;28498;54.400;18.566;2022-09-09T08:16:35;0.60;;;0.50;;
42364;SDS011;28498;54.400;18.566;2022-09-09T08:19:04;0.40;;;0.40;;
42364;SDS011;28498;54.400;18.566;2022-09-09T08:21:33;0.50;;;0.50;;
42364;SDS011;28498;54.400;18.566;2022-09-09T08:24:03;0.40;;;0.40;;
42364;SDS011;28498;54.400;18.566;2022-09-09T08:26:35;0.30;;;0.30;;
42364;SDS011;28498;54.400;18.566;2022-09-09T08:29:04;0.20;;;0.20;;
42364;SDS011;28498;54.400;18.566;2022-09-09T08:31:33;0.30;;;0.30;;
42364;SDS011;28498;54.400;18.566;2022-09-09T08:34:06;1.08;;;1.00;;
42364;SDS011;28498;54.400;18.566;2022-09-09T08:36:34;0.30;;;0.30;;
42364;SDS011;28498;54.400;18.566;2022-09-09T08:39:03;0.77;;;0.77;;
42364;SDS011;28498;54.400;18.566;2022-09-09T08:47:33;0.28;;;0.28;;
42364;SDS011;28498;54.400;18.566;2022-09-09T08:50:13;0.85;;;0.85;;
42364;SDS011;28498;54.400;18.566;2022-09-09T09:06:28;0.40;;;0.40;;
42364;SDS011;28498;54.400;18.566;2022-09-09T09:11:50;0.28;;;0.28;;
42364;SDS011;28498;54.400;18.566;2022-09-09T09:14:28;0.90;;;0.60;;
42364;SDS011;28498;54.400;18.566;2022-09-09T09:16:58;0.65;;;0.63;;
42364;SDS011;28498;54.400;18.566;2022-09-09T09:19:28;0.77;;;0.77;;
42364;SDS011;28498;54.400;18.566;2022-09-09T09:22:01;0.20;;;0.20;;
42364;SDS011;28498;54.400;18.566;2022-09-09T09:24:56;0.30;;;0.30;;
42364;SDS011;28498;54.400;18.566;2022-09-09T09:27:40;1.83;;;1.45;;
42364;SDS011;28498;54.400;18.566;2022-09-09T09:30:17;0.75;;;0.75;;
42364;SDS011;28498;54.400;18.566;2022-09-09T09:32:59;0.40;;;0.40;;
42364;SDS011;28498;54.400;18.566;2022-09-09T09:35:32;0.50;;;0.50;;
42364;SDS011;28498;54.400;18.566;2022-09-09T09:38:19;0.30;;;0.30;;
42364;SDS011;28498;54.400;18.566;2022-09-09T09:41:08;0.20;;;0.20;;
42364;SDS011;28498;54.400;18.566;2022-09-09T09:43:36;1.02;;;0.68;;
42364;SDS011;28498;54.400;18.566;2022-09-09T09:46:16;0.40;;;0.40;;
42364;SDS011;28498;54.400;18.566;2022-09-09T09:48:56;0.40;;;0.40;;
42364;SDS011;28498;54.400;18.566;2022-09-09T09:51:29;0.50;;;0.50;;
42364;SDS011;28498;54.400;18.566;2022-09-09T09:56:44;1.60;;;0.95;;
42364;SDS011;28498;54.400;18.566;2022-09-09T09:59:22;0.32;;;0.32;;
42364;SDS011;28498;54.400;18.566;2022-09-09T10:04:42;0.30;;;0.30;;
42364;SDS011;28498;54.400;18.566;2022-09-09T10:07:12;0.20;;;0.20;;
42364;SDS011;28498;54.400;18.566;2022-09-09T10:09:43;0.75;;;0.75;;
42364;SDS011;28498;54.400;18.566;2022-09-09T10:29:27;1.35;;;0.85;;
42364;SDS011;28498;54.400;18.566;2022-09-09T10:32:25;0.68;;;0.68;;
42364;SDS011;28498;54.400;18.566;2022-09-09T10:35:12;0.85;;;0.57;;
42364;SDS011;28498;54.400;18.566;2022-09-09T10:47:05;0.73;;;0.73;;
42364;SDS011;28498;54.400;18.566;2022-09-09T10:49:54;0.30;;;0.30;;
42364;SDS011;28498;54.400;18.566;2022-09-09T10:58:02;7.32;;;3.95;;
42364;SDS011;28498;54.400;18.566;2022-09-09T11:03:14;10.52;;;6.03;;
42364;SDS011;28498;54.400;18.566;2022-09-09T11:05:57;10.27;;;6.40;;
42364;SDS011;28498;54.400;18.566;2022-09-09T11:08:34;12.95;;;5.95;;
42364;SDS011;28498;54.400;18.566;2022-09-09T11:11:06;9.38;;;6.22;;
42364;SDS011;28498;54.400;18.566;2022-09-09T11:16:34;10.30;;;6.47;;
42364;SDS011;28498;54.400;18.566;2022-09-09T11:19:04;7.20;;;5.70;;
42364;SDS011;28498;54.400;18.566;2022-09-09T11:21:55;9.27;;;5.82;;
42364;SDS011;28498;54.400;18.566;2022-09-09T11:27:06;8.63;;;6.80;;
42364;SDS011;28498;54.400;18.566;2022-09-09T11:38:27;10.95;;;7.10;;
42364;SDS011;28498;54.400;18.566;2022-09-09T11:40:59;11.27;;;7.03;;
42364;SDS011;28498;54.400;18.566;2022-09-09T11:43:30;12.27;;;7.45;;
42364;SDS011;28498;54.400;18.566;2022-09-09T11:46:00;12.48;;;7.95;;
42364;SDS011;28498;54.400;18.566;2022-09-09T11:48:31;9.10;;;6.88;;
42364;SDS011;28498;54.400;18.566;2022-09-09T11:51:08;10.40;;;6.90;;
42364;SDS011;28498;54.400;18.566;2022-09-09T11:59:06;11.80;;;7.18;;
42364;SDS011;28498;54.400;18.566;2022-09-09T12:01:57;10.57;;;7.50;;
42364;SDS011;28498;54.400;18.566;2022-09-09T12:05:02;10.10;;;6.82;;
42364;SDS011;28498;54.400;18.566;2022-09-09T12:07:40;10.48;;;6.93;;
42364;SDS011;28498;54.400;18.566;2022-09-09T12:10:34;11.35;;;7.03;;
42364;SDS011;28498;54.400;18.566;2022-09-09T12:13:09;10.23;;;7.30;;
42364;SDS011;28498;54.400;18.566;2022-09-09T12:15:49;11.00;;;6.75;;
42364;SDS011;28498;54.400;18.566;2022-09-09T12:18:38;9.90;;;7.20;;
42364;SDS011;28498;54.400;18.566;2022-09-09T12:21:07;11.70;;;7.65;;
42364;SDS011;28498;54.400;18.566;2022-09-09T12:23:52;10.02;;;7.60;;
42364;SDS011;28498;54.400;18.566;2022-09-09T12:32:38;11.82;;;7.50;;
42364;SDS011;28498;54.400;18.566;2022-09-09T12:34:59;10.35;;;7.78;;
42364;SDS011;28498;54.400;18.566;2022-09-09T12:40:32;10.88;;;7.93;;
42364;SDS011;28498;54.400;18.566;2022-09-09T12:43:16;13.00;;;7.93;;
42364;SDS011;28498;54.400;18.566;2022-09-09T12:45:46;11.18;;;8.07;;
42364;SDS011;28498;54.400;18.566;2022-09-09T12:48:14;14.57;;;10.18;;
42364;SDS011;28498;54.400;18.566;2022-09-09T12:50:45;13.27;;;8.38;;
42364;SDS011;28498;54.400;18.566;2022-09-09T12:53:25;13.43;;;7.88;;
42364;SDS011;28498;54.400;18.566;2022-09-09T12:55:57;13.65;;;8.70;;
42364;SDS011;28498;54.400;18.566;2022-09-09T12:58:27;11.27;;;8.52;;
42364;SDS011;28498;54.400;18.566;2022-09-09T13:00:59;12.18;;;9.00;;
42364;SDS011;28498;54.400;18.566;2022-09-09T13:03:27;11.70;;;8.90;;
42364;SDS011;28498;54.400;18.566;2022-09-09T13:05:57;12.18;;;8.57;;
42364;SDS011;28498;54.400;18.566;2022-09-09T13:08:26;13.77;;;9.38;;
42364;SDS011;28498;54.400;18.566;2022-09-09T13:10:54;11.43;;;8.30;;
42364;SDS011;28498;54.400;18.566;2022-09-09T13:13:30;11.13;;;8.77;;
42364;SDS011;28498;54.400;18.566;2022-09-09T13:16:20;10.93;;;8.20;;
42364;SDS011;28498;54.400;18.566;2022-09-09T13:18:51;10.68;;;8.80;;
42364;SDS011;28498;54.400;18.566;2022-09-09T13:21:19;12.52;;;9.38;;
42364;SDS011;28498;54.400;18.566;2022-09-09T13:23:56;11.35;;;8.23;;
42364;SDS011;28498;54.400;18.566;2022-09-09T13:26:26;11.88;;;8.50;;
42364;SDS011;28498;54.400;18.566;2022-09-09T13:28:53;11.43;;;8.05;;
42364;SDS011;28498;54.400;18.566;2022-09-09T13:31:23;11.23;;;8.43;;
42364;SDS011;28498;54.400;18.566;2022-09-09T13:33:55;10.55;;;7.60;;
42364;SDS011;28498;54.400;18.566;2022-09-09T13:36:32;10.27;;;7.38;;
42364;SDS011;28498;54.400;18.566;2022-09-09T13:39:01;10.85;;;8.13;;
42364;SDS011;28498;54.400;18.566;2022-09-09T13:43:58;10.32;;;8.30;;
42364;SDS011;28498;54.400;18.566;2022-09-09T13:46:58;11.70;;;7.78;;
42364;SDS011;28498;54.400;18.566;2022-09-09T13:49:19;10.88;;;8.30;;
42364;SDS011;28498;54.400;18.566;2022-09-09T13:51:49;11.50;;;8.88;;
42364;SDS011;28498;54.400;18.566;2022-09-09T13:54:19;11.70;;;8.90;;
42364;SDS011;28498;54.400;18.566;2022-09-09T13:56:46;12.48;;;8.55;;
42364;SDS011;28498;54.400;18.566;2022-09-09T13:59:16;14.63;;;9.68;;
42364;SDS011;28498;54.400;18.566;2022-09-09T14:01:48;14.90;;;9.32;;
42364;SDS011;28498;54.400;18.566;2022-09-09T14:04:18;14.27;;;10.45;;
42364;SDS011;28498;54.400;18.566;2022-09-09T14:06:49;14.27;;;10.35;;
42364;SDS011;28498;54.400;18.566;2022-09-09T14:09:17;15.23;;;10.45;;
42364;SDS011;28498;54.400;18.566;2022-09-09T14:11:44;18.83;;;11.63;;
42364;SDS011;28498;54.400;18.566;2022-09-09T14:14:12;17.98;;;12.65;;
42364;SDS011;28498;54.400;18.566;2022-09-09T14:16:39;17.00;;;11.13;;
42364;SDS011;28498;54.400;18.566;2022-09-09T14:19:07;16.10;;;12.75;;
42364;SDS011;28498;54.400;18.566;2022-09-09T14:21:35;17.08;;;12.00;;
42364;SDS011;28498;54.400;18.566;2022-09-09T14:24:02;17.23;;;12.45;;
42364;SDS011;28498;54.400;18.566;2022-09-09T14:26:29;18.45;;;12.48;;
42364;SDS011;28498;54.400;18.566;2022-09-09T14:28:56;16.40;;;12.43;;
42364;SDS011;28498;54.400;18.566;2022-09-09T14:31:24;18.92;;;13.35;;
42364;SDS011;28498;54.400;18.566;2022-09-09T14:33:51;19.23;;;12.68;;
42364;SDS011;28498;54.400;18.566;2022-09-09T14:36:18;20.40;;;12.43;;
42364;SDS011;28498;54.400;18.566;2022-09-09T14:38:46;15.65;;;12.13;;
42364;SDS011;28498;54.400;18.566;2022-09-09T14:41:14;18.15;;;12.63;;
42364;SDS011;28498;54.400;18.566;2022-09-09T14:43:43;18.40;;;12.05;;
42364;SDS011;28498;54.400;18.566;2022-09-09T14:46:12;18.90;;;13.38;;
42364;SDS011;28498;54.400;18.566;2022-09-09T14:48:40;17.80;;;12.85;;
42364;SDS011;28498;54.400;18.566;2022-09-09T14:51:08;20.98;;;14.15;;
42364;SDS011;28498;54.400;18.566;2022-09-09T14:53:36;20.27;;;14.32;;
42364;SDS011;28498;54.400;18.566;2022-09-09T14:56:07;22.25;;;14.50;;
42364;SDS011;28498;54.400;18.566;2022-09-09T14:58:36;18.48;;;14.20;;
42364;SDS011;28498;54.400;18.566;2022-09-09T15:01:08;20.17;;;14.07;;
42364;SDS011;28498;54.400;18.566;2022-09-09T15:03:37;23.52;;;14.27;;
42364;SDS011;28498;54.400;18.566;2022-09-09T15:06:06;18.77;;;14.75;;
42364;SDS011;28498;54.400;18.566;2022-09-09T15:08:35;21.65;;;14.07;;
42364;SDS011;28498;54.400;18.566;2022-09-09T15:11:08;21.73;;;14.52;;
42364;SDS011;28498;54.400;18.566;2022-09-09T15:13:36;24.08;;;14.10;;
42364;SDS011;28498;54.400;18.566;2022-09-09T15:16:05;20.17;;;14.60;;
42364;SDS011;28498;54.400;18.566;2022-09-09T15:18:33;18.42;;;13.98;;
42364;SDS011;28498;54.400;18.566;2022-09-09T15:21:00;22.77;;;15.65;;
42364;SDS011;28498;54.400;18.566;2022-09-09T15:23:30;17.70;;;13.80;;
42364;SDS011;28498;54.400;18.566;2022-09-09T15:26:01;19.13;;;14.35;;
42364;SDS011;28498;54.400;18.566;2022-09-09T15:28:28;19.50;;;14.20;;
42364;SDS011;28498;54.400;18.566;2022-09-09T15:30:57;19.85;;;14.25;;
42364;SDS011;28498;54.400;18.566;2022-09-09T15:33:26;24.45;;;15.20;;
42364;SDS011;28498;54.400;18.566;2022-09-09T15:35:53;21.05;;;14.38;;
42364;SDS011;28498;54.400;18.566;2022-09-09T15:38:20;23.38;;;14.88;;
42364;SDS011;28498;54.400;18.566;2022-09-09T15:40:52;23.08;;;16.42;;
42364;SDS011;28498;54.400;18.566;2022-09-09T15:43:21;22.60;;;15.45;;
42364;SDS011;28498;54.400;18.566;2022-09-09T15:45:49;20.65;;;14.82;;
42364;SDS011;28498;54.400;18.566;2022-09-09T15:48:30;22.40;;;15.45;;
42364;SDS011;28498;54.400;18.566;2022-09-09T15:51:03;19.92;;;15.27;;
42364;SDS011;28498;54.400;18.566;2022-09-09T15:53:54;25.55;;;17.52;;
42364;SDS011;28498;54.400;18.566;2022-09-09T15:56:24;24.58;;;15.85;;
42364;SDS011;28498;54.400;18.566;2022-09-09T15:58:53;25.10;;;15.90;;
42364;SDS011;28498;54.400;18.566;2022-09-09T16:01:22;22.90;;;14.68;;
42364;SDS011;28498;54.400;18.566;2022-09-09T16:03:50;26.27;;;17.60;;
42364;SDS011;28498;54.400;18.566;2022-09-09T16:06:18;21.13;;;16.33;;
42364;SDS011;28498;54.400;18.566;2022-09-09T16:08:50;26.23;;;17.77;;
42364;SDS011;28498;54.400;18.566;2022-09-09T16:11:19;23.98;;;17.45;;
42364;SDS011;28498;54.400;18.566;2022-09-09T16:13:55;25.88;;;16.25;;
42364;SDS011;28498;54.400;18.566;2022-09-09T16:16:23;25.00;;;16.38;;
42364;SDS011;28498;54.400;18.566;2022-09-09T16:18:54;25.67;;;17.83;;
42364;SDS011;28498;54.400;18.566;2022-09-09T16:23:51;27.27;;;18.17;;
42364;SDS011;28498;54.400;18.566;2022-09-09T16:26:19;34.80;;;19.23;;
42364;SDS011;28498;54.400;18.566;2022-09-09T16:28:46;25.95;;;17.38;;
42364;SDS011;28498;54.400;18.566;2022-09-09T16:31:14;25.77;;;17.73;;
42364;SDS011;28498;54.400;18.566;2022-09-09T16:33:44;26.83;;;17.77;;
42364;SDS011;28498;54.400;18.566;2022-09-09T16:36:13;27.50;;;18.52;;
42364;SDS011;28498;54.400;18.566;2022-09-09T16:38:42;28.48;;;18.48;;
42364;SDS011;28498;54.400;18.566;2022-09-09T16:41:10;27.58;;;17.95;;
42364;SDS011;28498;54.400;18.566;2022-09-09T16:43:38;31.35;;;18.67;;
42364;SDS011;28498;54.400;18.566;2022-09-09T16:46:17;29.35;;;19.05;;
42364;SDS011;28498;54.400;18.566;2022-09-09T16:48:46;27.40;;;18.73;;
42364;SDS011;28498;54.400;18.566;2022-09-09T16:51:15;26.05;;;18.90;;
42364;SDS011;28498;54.400;18.566;2022-09-09T16:53:53;30.73;;;18.98;;
42364;SDS011;28498;54.400;18.566;2022-09-09T16:56:24;28.40;;;18.85;;
42364;SDS011;28498;54.400;18.566;2022-09-09T16:58:53;31.35;;;19.75;;
42364;SDS011;28498;54.400;18.566;2022-09-09T17:01:22;34.90;;;21.13;;
42364;SDS011;28498;54.400;18.566;2022-09-09T17:03:53;31.90;;;18.80;;
42364;SDS011;28498;54.400;18.566;2022-09-09T17:06:26;33.63;;;20.58;;
42364;SDS011;28498;54.400;18.566;2022-09-09T17:08:56;33.03;;;19.83;;
42364;SDS011;28498;54.400;18.566;2022-09-09T17:11:27;36.13;;;20.95;;
42364;SDS011;28498;54.400;18.566;2022-09-09T17:13:56;39.17;;;21.17;;